Humidity-temperature Sensor

Selected Measurement Type: Relative Humidity

 
Relative Humidity [%]     6 entries per hour
Showing data from 2/7/2023 (00:00:00 Z) to 2/6/2023 (00:01:00 Z)
Previous Next [ Day | 3-Days | 7-Days ]
First Last
Prev [ Day | 3-Days | 7-Days ] Next
First Last

Start Time:     :
End Time:     :     
Time (in GMT) :00 :50 :40 :30 :20 :10
Previous Next [ Day | 3-Days | 7-Days ]
First Last
Prev [ Day | 3-Days | 7-Days ] Next
First Last


123 => good data
MM => data is determined as missing
-- => data not received/configured
Back to Top Back to Top
2/7/2023 00:00 to 23:10 89.42 89.71 89.90 90.14 90.12 89.94
2/6/2023 23:00 to 22:10 90.24 90.18 89.85 89.92 90.00 89.59
2/6/2023 22:00 to 21:10 89.26 88.37 87.08 86.26 86.92 88.21
2/6/2023 21:00 to 20:10 89.65 90.39 91.11 91.23 91.31 91.66
2/6/2023 20:00 to 19:10 92.18 92.24 92.55 92.69 92.67 92.38
2/6/2023 19:00 to 18:10 92.32 92.14 92.09 92.28 92.22 92.30
2/6/2023 18:00 to 17:10 92.24 92.73 93.00 92.81 92.98 92.75
2/6/2023 17:00 to 16:10 92.65 92.75 92.81 92.73 92.90 93.04
2/6/2023 16:00 to 15:10 92.92 92.71 92.73 92.63 92.46 92.44
2/6/2023 15:00 to 14:10 92.77 92.71 92.57 92.55 92.81 92.83
2/6/2023 14:00 to 13:10 92.81 93.00 92.98 92.85 92.90 93.02
2/6/2023 13:00 to 12:10 93.14 92.85 92.79 92.81 92.50 92.63
2/6/2023 12:00 to 11:10 93.04 92.90 92.69 92.83 92.85 92.94
2/6/2023 11:00 to 10:10 92.85 92.36 92.48 92.57 92.46 92.90
2/6/2023 10:00 to 9:10 92.96 92.83 92.59 92.77 92.67 92.79
2/6/2023 09:00 to 8:10 92.44 92.38 92.48 92.36 92.53 93.02
2/6/2023 08:00 to 7:10 93.18 93.33 93.37 93.20 93.24 93.12
2/6/2023 07:00 to 6:10 93.27 93.18 93.29 93.37 93.43 93.31
2/6/2023 06:00 to 5:10 93.43 93.74 93.78 93.80 93.51 93.53
2/6/2023 05:00 to 4:10 93.55 93.51 93.18 92.85 93.20 93.00
2/6/2023 04:00 to 3:10 92.96 92.85 92.48 92.36 92.48 92.38
2/6/2023 03:00 to 2:10 92.32 92.20 92.11 91.70 91.95 92.09
2/6/2023 02:00 to 1:10 91.99 91.70 91.54 91.62 91.31 91.03
2/6/2023 01:00 to 0:10 90.94 91.33 91.33 91.29 91.31 91.23